Time;durP1;ratioP1;P1;durP2;ratioP2;P2;SDS_P1;SDS_P2;PMS_P1;PMS_P2;Temp;Humidity;BMP_temperature;BMP_pressure;BME280_temperature;BME280_humidity;BME280_pressure;Samples;Min_cycle;Max_cycle;Signal;HPM_P1;HPM_P2
2021/12/24 00:01:12;;;;;;;;;30.75;29.75;;;;;-147.17;100.00;50300.72;4960149;28;52948;-57
2021/12/24 00:03:38;;;;;;;;;37.75;33.75;;;;;-147.17;100.00;50332.19;4962800;28;53061;-55
2021/12/24 00:06:05;;;;;;;;;32.50;28.75;;;;;-147.17;100.00;50277.09;4965537;28;51385;-55
2021/12/24 00:08:31;;;;;;;;;26.75;25.00;;;;;-147.17;100.00;50288.91;4964024;28;51149;-56
2021/12/24 00:11:01;;;;;;;;;29.50;26.75;;;;;-147.17;100.00;50281.03;4963012;28;51102;-55
2021/12/24 00:13:36;;;;;;;;;25.75;25.25;;;;;-147.17;100.00;50302.69;4962272;28;51448;-55
2021/12/24 00:18:45;;;;;;;;;31.00;30.50;;;;;-147.17;100.00;50316.44;4980672;28;51336;-57
2021/12/24 00:22:11;;;;;;;;;31.75;30.50;;;;;-147.17;100.00;50306.63;4965910;28;51376;-54
2021/12/24 00:35:17;;;;;;;;;27.75;27.00;;;;;-147.17;100.00;50284.97;4959475;28;51444;-55
2021/12/24 00:37:45;;;;;;;;;31.25;30.25;;;;;-147.17;100.00;50296.78;4964226;28;51171;-57
2021/12/24 00:40:18;;;;;;;;;30.25;29.75;;;;;-147.17;100.00;50284.97;4962814;28;51218;-54
2021/12/24 00:42:48;;;;;;;;;25.50;24.75;;;;;-147.17;100.00;50253.47;4962203;28;51371;-57
2021/12/24 00:45:17;;;;;;;;;32.00;28.25;;;;;-147.17;100.00;50308.59;4963257;28;53483;-57
2021/12/24 00:47:43;;;;;;;;;35.50;32.50;;;;;-147.17;100.00;50300.72;4963143;28;51478;-56
2021/12/24 00:50:13;;;;;;;;;34.75;31.50;;;;;-147.17;100.00;50314.47;4966515;28;51331;-58
2021/12/24 00:52:48;;;;;;;;;33.25;29.00;;;;;-147.17;100.00;50284.97;4960083;28;51400;-55
2021/12/24 00:55:17;;;;;;;;;30.25;28.50;;;;;-147.17;100.00;50310.56;4965733;28;51858;-55
2021/12/24 00:57:47;;;;;;;;;35.25;33.25;;;;;-147.17;100.00;50292.84;4965641;28;51317;-55
2021/12/24 01:00:17;;;;;;;;;33.00;30.00;;;;;-147.17;100.00;50328.25;4968109;28;51147;-57
2021/12/24 01:02:43;;;;;;;;;32.50;31.25;;;;;-147.17;100.00;50300.72;4962958;28;51095;-57
2021/12/24 01:05:10;;;;;;;;;31.75;31.00;;;;;-147.17;100.00;50296.78;4965463;28;50968;-55
2021/12/24 01:07:36;;;;;;;;;25.50;24.50;;;;;-147.17;100.00;50310.56;4959581;28;51165;-56
2021/12/24 01:10:03;;;;;;;;;28.75;27.50;;;;;-147.17;100.00;50344.00;4965112;28;52394;-55
2021/12/24 01:12:28;;;;;;;;;31.50;30.25;;;;;-147.17;100.00;50316.44;4967789;28;51082;-55
2021/12/24 01:14:54;;;;;;;;;28.25;27.75;;;;;-147.17;100.00;50281.03;4959159;28;51788;-55
2021/12/24 01:17:33;;;;;;;;;33.00;30.25;;;;;-147.17;100.00;50322.34;4961900;28;51291;-55
2021/12/24 01:20:06;;;;;;;;;31.50;29.75;;;;;-147.17;100.00;50271.19;4963761;28;51339;-55
2021/12/24 01:38:58;;;;;;;;;28.25;24.75;;;;;-147.17;100.00;50310.56;4960167;28;51153;-55
2021/12/24 01:42:41;;;;;;;;;27.75;23.25;;;;;-147.17;100.00;50310.56;4962669;28;52825;-55
2021/12/24 01:44:22;;;;;;;;;26.50;26.00;;;;;-147.17;100.00;50296.78;4968370;28;51281;-55
2021/12/24 01:46:47;;;;;;;;;27.00;25.50;;;;;-147.17;100.00;50290.88;4972599;28;52318;-55
2021/12/24 01:49:13;;;;;;;;;33.75;30.75;;;;;-147.17;100.00;50294.81;4966368;28;51095;-55
2021/12/24 01:51:39;;;;;;;;;30.00;28.25;;;;;-147.17;100.00;50292.84;4971003;28;51251;-55
2021/12/24 01:54:04;;;;;;;;;33.00;30.50;;;;;-147.17;100.00;50288.91;4957114;28;51313;-55
2021/12/24 01:56:29;;;;;;;;;28.00;26.00;;;;;-147.17;100.00;50300.72;4956404;28;54052;-55
2021/12/24 01:58:55;;;;;;;;;28.00;26.50;;;;;-147.17;100.00;50255.44;4975423;28;50919;-55
2021/12/24 02:01:25;;;;;;;;;29.75;29.50;;;;;-147.17;100.00;50308.59;4975607;28;51397;-55
2021/12/24 02:03:51;;;;;;;;;27.50;25.50;;;;;-147.17;100.00;50269.22;4964978;28;51114;-55
2021/12/24 02:06:16;;;;;;;;;30.25;28.25;;;;;-147.17;100.00;50310.56;4956566;28;51798;-56
2021/12/24 02:08:41;;;;;;;;;30.00;28.50;;;;;-147.17;100.00;50277.09;4974532;28;51058;-55
2021/12/24 02:11:07;;;;;;;;;27.50;26.50;;;;;-147.17;100.00;50265.28;4965006;28;51125;-55
2021/12/24 02:13:32;;;;;;;;;28.25;28.25;;;;;-147.17;100.00;50257.41;4964368;28;51276;-56
2021/12/24 02:16:14;;;;;;;;;33.00;26.50;;;;;-147.17;100.00;50290.88;4956570;28;51668;-55
2021/12/24 02:29:53;;;;;;;;;32.00;26.75;;;;;-147.17;100.00;50265.28;4936091;28;51066;-55
2021/12/24 02:32:18;;;;;;;;;32.00;30.00;;;;;-147.17;100.00;50290.88;4959094;28;51130;-56
2021/12/24 02:34:44;;;;;;;;;33.75;28.75;;;;;-147.17;100.00;50284.97;4969827;28;50908;-54
2021/12/24 02:37:12;;;;;;;;;34.00;32.50;;;;;-147.17;100.00;50292.84;4971156;28;52806;-57
2021/12/24 02:39:37;;;;;;;;;29.00;27.25;;;;;-147.17;100.00;50257.41;4966334;28;51175;-55
2021/12/24 02:42:30;;;;;;;;;32.00;32.00;;;;;-147.17;100.00;50245.59;4959238;28;51103;-56
2021/12/24 02:44:55;;;;;;;;;29.25;28.50;;;;;-147.17;100.00;50265.28;4972717;28;51140;-55
2021/12/24 02:55:06;;;;;;;;;34.75;32.75;;;;;-147.17;100.00;50249.53;4975801;28;51020;-55
2021/12/24 02:57:33;;;;;;;;;35.00;32.75;;;;;-147.17;100.00;50243.63;4970125;28;52043;-55
2021/12/24 03:00:02;;;;;;;;;37.75;31.75;;;;;-147.17;100.00;50247.56;4979687;28;51107;-54
2021/12/24 03:02:30;;;;;;;;;26.25;24.50;;;;;-147.17;100.00;50292.84;4968814;28;51053;-54
2021/12/24 03:04:55;;;;;;;;;30.75;29.75;;;;;-147.17;100.00;50233.78;4975788;28;51023;-55
2021/12/24 03:07:21;;;;;;;;;31.25;30.25;;;;;-147.17;100.00;50231.81;4973874;28;51974;-56
2021/12/24 03:09:46;;;;;;;;;32.75;32.00;;;;;-147.17;100.00;50253.47;4966281;28;50983;-55
2021/12/24 03:12:12;;;;;;;;;29.50;27.75;;;;;-147.17;100.00;50243.63;4954554;28;51209;-54
2021/12/24 03:14:37;;;;;;;;;34.25;32.50;;;;;-147.17;100.00;50208.19;4968652;28;51372;-56
2021/12/24 03:17:08;;;;;;;;;35.25;34.50;;;;;-147.17;100.00;50261.34;4960420;28;52750;-55
2021/12/24 03:19:34;;;;;;;;;32.50;30.25;;;;;-147.17;100.00;50218.03;4965906;28;51041;-55
2021/12/24 03:22:29;;;;;;;;;29.25;27.00;;;;;-147.17;100.00;50229.84;4975123;28;50905;-54
2021/12/24 03:24:54;;;;;;;;;30.25;29.50;;;;;-147.17;100.00;50210.16;4965021;28;51217;-55
2021/12/24 03:27:22;;;;;;;;;33.50;31.00;;;;;-147.17;100.00;50235.75;4964514;28;51888;-54
2021/12/24 03:29:48;;;;;;;;;31.75;30.00;;;;;-147.17;100.00;50231.81;4971480;28;51134;-56
2021/12/24 03:32:13;;;;;;;;;31.75;31.25;;;;;-147.17;100.00;50237.72;4958914;28;51219;-56
2021/12/24 03:34:39;;;;;;;;;33.25;31.50;;;;;-147.17;100.00;50206.22;4974932;28;51420;-57
2021/12/24 03:37:05;;;;;;;;;30.75;27.75;;;;;-147.17;100.00;50192.44;4973490;28;51118;-55
2021/12/24 03:39:30;;;;;;;;;33.75;30.75;;;;;-147.17;100.00;50220.00;4971583;28;51142;-56
2021/12/24 03:41:55;;;;;;;;;33.75;30.75;;;;;-147.17;100.00;50210.16;4955441;28;51328;-56
2021/12/24 03:44:30;;;;;;;;;34.25;31.25;;;;;-147.17;100.00;50202.28;4955581;28;51116;-55
2021/12/24 03:47:03;;;;;;;;;34.00;31.50;;;;;-147.17;100.00;50174.72;4957096;28;52200;-56
2021/12/24 03:52:04;;;;;;;;;32.50;31.00;;;;;-147.17;100.00;50194.41;4956875;28;50937;-54
2021/12/24 03:57:15;;;;;;;;;32.25;30.25;;;;;-147.17;100.00;50229.84;4957687;28;50959;-56
2021/12/24 03:59:41;;;;;;;;;28.75;28.50;;;;;-147.17;100.00;50237.72;4966796;28;51130;-55
2021/12/24 04:02:06;;;;;;;;;34.25;32.00;;;;;-147.17;100.00;50208.19;4961700;28;51094;-58
2021/12/24 04:04:32;;;;;;;;;30.25;28.75;;;;;-147.17;100.00;50210.16;4973402;28;51221;-55
2021/12/24 04:06:57;;;;;;;;;31.50;30.75;;;;;-147.17;100.00;50206.22;4973406;28;51761;-56
2021/12/24 04:09:25;;;;;;;;;33.75;29.75;;;;;-147.17;100.00;50218.03;4971046;28;50920;-56
2021/12/24 04:11:50;;;;;;;;;31.00;30.25;;;;;-147.17;100.00;50235.75;4966558;28;51016;-54
2021/12/24 04:14:16;;;;;;;;;31.50;30.00;;;;;-147.17;100.00;50194.41;4954904;28;51588;-54
2021/12/24 04:16:41;;;;;;;;;28.75;26.00;;;;;-147.17;100.00;50214.09;4954766;28;52201;-55
2021/12/24 04:24:51;;;;;;;;;29.75;25.25;;;;;-147.17;100.00;50210.16;4957712;28;51143;-54
2021/12/24 04:27:17;;;;;;;;;32.25;30.50;;;;;-147.17;100.00;50200.31;4973632;28;53863;-55
2021/12/24 04:29:43;;;;;;;;;31.25;29.50;;;;;-147.17;100.00;50190.47;4973102;28;50896;-53
2021/12/24 04:32:16;;;;;;;;;31.25;29.25;;;;;-147.17;100.00;50210.16;4972792;28;50917;-55
2021/12/24 04:34:46;;;;;;;;;26.75;25.00;;;;;-147.17;100.00;50198.34;4971926;28;51072;-55
2021/12/24 05:01:16;;;;;;;;;27.75;27.25;;;;;-147.17;100.00;50133.38;4972012;28;51060;-55
2021/12/24 05:03:44;;;;;;;;;30.75;28.75;;;;;-147.17;100.00;50186.53;4972993;28;51070;-56
2021/12/24 05:11:10;;;;;;;;;34.25;31.50;;;;;-147.17;100.00;50190.47;4973580;28;50900;-55
2021/12/24 05:13:37;;;;;;;;;30.75;30.75;;;;;-147.17;100.00;50166.84;4972516;28;51098;-55
2021/12/24 05:16:13;;;;;;;;;34.50;32.75;;;;;-147.17;100.00;50178.66;4954479;28;51190;-55
2021/12/24 05:21:33;;;;;;;;;31.25;28.00;;;;;-147.17;100.00;50216.06;4951824;28;51276;-55
2021/12/24 05:24:07;;;;;;;;;31.00;31.00;;;;;-147.17;100.00;50204.25;4972434;28;51035;-58
2021/12/24 05:26:34;;;;;;;;;32.25;28.75;;;;;-147.17;100.00;50190.47;4970130;28;51299;-57
2021/12/24 05:29:00;;;;;;;;;33.25;30.25;;;;;-147.17;100.00;50178.66;4973782;28;51173;-56
2021/12/24 05:31:27;;;;;;;;;29.50;26.00;;;;;-147.17;100.00;50196.38;4972035;28;50949;-56
2021/12/24 05:33:53;;;;;;;;;30.75;27.50;;;;;-147.17;100.00;50168.81;4959149;28;51114;-56
2021/12/24 05:36:18;;;;;;;;;30.00;27.00;;;;;-147.17;100.00;50188.50;4966385;28;51221;-57
2021/12/24 05:38:46;;;;;;;;;30.00;25.75;;;;;-147.17;100.00;50206.22;4955191;28;51066;-56
2021/12/24 05:41:12;;;;;;;;;28.75;26.75;;;;;-147.17;100.00;50162.91;4954118;28;50983;-55
2021/12/24 05:43:38;;;;;;;;;27.25;25.25;;;;;-147.17;100.00;50198.34;4958784;28;51124;-56
2021/12/24 05:46:03;;;;;;;;;29.75;27.50;;;;;-147.17;100.00;50162.91;4973761;28;50924;-56
2021/12/24 05:48:28;;;;;;;;;30.00;28.50;;;;;-147.17;100.00;50162.91;4972816;28;51913;-56
2021/12/24 05:50:54;;;;;;;;;24.50;24.50;;;;;-147.17;100.00;50170.78;4951549;28;51069;-56
2021/12/24 05:53:20;;;;;;;;;28.00;25.75;;;;;-147.17;100.00;50188.50;4965585;28;51179;-56
2021/12/24 05:55:46;;;;;;;;;32.25;28.25;;;;;-147.17;100.00;50174.72;4954164;28;50997;-56
2021/12/24 05:58:11;;;;;;;;;30.00;30.00;;;;;-147.17;100.00;50162.91;4963617;28;50937;-56
2021/12/24 06:00:39;;;;;;;;;28.00;26.25;;;;;-147.17;100.00;50160.94;4969170;28;50948;-57
2021/12/24 06:03:08;;;;;;;;;20.00;18.50;;;;;-147.17;100.00;50162.91;4962110;28;51036;-56
2021/12/24 06:05:34;;;;;;;;;29.50;26.75;;;;;-147.17;100.00;50139.28;4973256;28;51079;-56
2021/12/24 06:08:00;;;;;;;;;27.25;26.25;;;;;-147.17;100.00;50162.91;4972505;28;51686;-57
2021/12/24 06:10:25;;;;;;;;;28.00;24.50;;;;;-147.17;100.00;50162.91;4970805;28;51255;-57
2021/12/24 06:12:51;;;;;;;;;25.50;25.25;;;;;-147.17;100.00;50145.19;4953648;28;51048;-56
2021/12/24 06:15:20;;;;;;;;;30.00;28.25;;;;;-147.17;100.00;50151.09;4953518;28;51084;-56
2021/12/24 06:17:47;;;;;;;;;29.50;25.75;;;;;-147.17;100.00;50131.41;4953113;28;52094;-56
2021/12/24 06:20:12;;;;;;;;;27.25;25.75;;;;;-147.17;100.00;50139.28;4958914;28;51022;-55
2021/12/24 06:22:38;;;;;;;;;25.75;25.25;;;;;-147.17;100.00;50135.34;4967107;28;51051;-55
2021/12/24 06:25:04;;;;;;;;;31.00;28.75;;;;;-147.17;100.00;50115.66;4972819;28;51268;-55
2021/12/24 06:27:30;;;;;;;;;31.75;29.75;;;;;-147.17;100.00;50119.59;4971206;28;53289;-57
2021/12/24 06:29:55;;;;;;;;;31.00;27.00;;;;;-147.17;100.00;50133.38;4965459;28;51051;-56
2021/12/24 06:32:21;;;;;;;;;34.00;28.25;;;;;-147.17;100.00;50105.81;4970028;28;51700;-55
2021/12/24 06:34:48;;;;;;;;;27.00;25.25;;;;;-147.17;100.00;50139.28;4972469;28;51117;-56
2021/12/24 06:37:14;;;;;;;;;42.00;37.75;;;;;-147.17;100.00;50107.78;4975124;28;52073;-56
2021/12/24 06:39:39;;;;;;;;;27.50;25.75;;;;;-147.17;100.00;50074.34;4969513;28;51353;-56
2021/12/24 06:42:05;;;;;;;;;27.25;25.25;;;;;-147.17;100.00;50107.78;4975690;28;50990;-56
2021/12/24 06:44:30;;;;;;;;;25.00;24.00;;;;;-147.17;100.00;50099.91;4955033;28;51069;-56
2021/12/24 06:46:55;;;;;;;;;26.50;25.25;;;;;-147.17;100.00;50074.34;4971073;28;51667;-56
2021/12/24 06:49:21;;;;;;;;;30.25;28.75;;;;;-147.17;100.00;50088.13;4973772;28;51096;-55
2021/12/24 06:51:46;;;;;;;;;31.00;27.75;;;;;-147.17;100.00;50078.28;4960112;28;51018;-56
2021/12/24 06:54:12;;;;;;;;;30.00;28.50;;;;;-147.17;100.00;50064.50;4962594;28;51018;-57
2021/12/24 06:56:38;;;;;;;;;24.50;23.50;;;;;-147.17;100.00;50072.38;4970874;28;52727;-58
2021/12/24 06:59:03;;;;;;;;;26.75;25.00;;;;;-147.17;100.00;50088.13;4970905;28;51295;-57
2021/12/24 07:01:29;;;;;;;;;25.00;24.25;;;;;-147.17;100.00;50088.13;4974311;28;52998;-54
2021/12/24 07:03:54;;;;;;;;;25.00;22.50;;;;;-147.17;100.00;50064.50;4974037;28;51346;-56
2021/12/24 07:06:21;;;;;;;;;26.00;25.50;;;;;-147.17;100.00;50103.84;4974008;28;50885;-56
2021/12/24 07:08:46;;;;;;;;;23.00;21.00;;;;;-147.17;100.00;50082.22;4973047;28;50981;-56
2021/12/24 07:11:12;;;;;;;;;27.00;26.00;;;;;-147.17;100.00;50054.66;4974169;28;51175;-56
2021/12/24 07:13:37;;;;;;;;;26.00;24.75;;;;;-147.17;100.00;50068.44;4956471;28;51353;-56
2021/12/24 07:16:03;;;;;;;;;26.75;23.75;;;;;-147.17;100.00;50082.22;4955646;28;51051;-55
2021/12/24 07:18:28;;;;;;;;;26.50;25.50;;;;;-147.17;100.00;50056.63;4963139;28;51099;-56
2021/12/24 07:20:54;;;;;;;;;26.00;25.75;;;;;-147.17;100.00;50080.25;4967387;28;51140;-56
2021/12/24 07:23:19;;;;;;;;;23.50;21.25;;;;;-147.17;100.00;50082.22;4956381;28;51253;-56
2021/12/24 07:25:46;;;;;;;;;20.50;19.50;;;;;-147.17;100.00;50038.91;4968565;28;51514;-56
2021/12/24 07:28:11;;;;;;;;;22.50;20.50;;;;;-147.17;100.00;50072.38;4973979;28;50995;-56
2021/12/24 07:30:36;;;;;;;;;22.50;20.25;;;;;-147.17;100.00;50040.88;4973160;28;51236;-57
2021/12/24 07:33:02;;;;;;;;;22.25;21.25;;;;;-147.17;100.00;50036.94;4987965;28;51126;-56
2021/12/24 07:35:28;;;;;;;;;22.00;20.00;;;;;-147.17;100.00;50048.75;4963553;28;50913;-56
2021/12/24 07:37:53;;;;;;;;;24.00;20.50;;;;;-147.17;100.00;50072.38;4973730;28;51286;-56
2021/12/24 07:40:19;;;;;;;;;22.75;19.25;;;;;-147.17;100.00;50021.19;4955673;28;50989;-56
2021/12/24 07:42:46;;;;;;;;;25.50;21.75;;;;;-147.17;100.00;50092.03;4980467;28;51371;-55
2021/12/24 07:45:14;;;;;;;;;24.00;23.50;;;;;-147.17;100.00;50021.19;4960320;28;51843;-55
2021/12/24 07:47:42;;;;;;;;;13.50;13.50;;;;;-147.17;100.00;50017.25;4976542;28;51193;-56
2021/12/24 07:52:55;;;;;;;;;24.50;19.25;;;;;-147.17;100.00;50068.44;4982185;28;50936;-56
2021/12/24 07:55:21;;;;;;;;;15.50;15.50;;;;;-147.17;100.00;50070.41;4973345;28;52108;-54
2021/12/24 07:57:49;;;;;;;;;24.75;21.50;;;;;-147.17;100.00;50044.81;4975972;28;51108;-54
2021/12/24 08:00:16;;;;;;;;;23.50;21.25;;;;;-147.17;100.00;50062.53;4976608;28;52606;-55
2021/12/24 08:02:42;;;;;;;;;20.25;17.00;;;;;-147.17;100.00;50058.59;4980700;28;51297;-56
2021/12/24 08:05:08;;;;;;;;;18.50;17.00;;;;;-147.17;100.00;50025.13;4980724;28;52124;-55
2021/12/24 08:07:34;;;;;;;;;22.75;20.00;;;;;-147.17;100.00;50044.81;4980551;28;51053;-55
2021/12/24 08:09:59;;;;;;;;;18.50;18.00;;;;;-147.17;100.00;50058.59;4982287;28;50964;-56
2021/12/24 08:12:24;;;;;;;;;20.75;19.00;;;;;-147.17;100.00;50052.69;4979578;28;51195;-56
2021/12/24 08:14:50;;;;;;;;;18.25;17.75;;;;;-147.17;100.00;50046.78;4973739;28;51775;-56
2021/12/24 08:17:16;;;;;;;;;17.75;16.00;;;;;-147.17;100.00;50044.81;4975333;28;51246;-55
2021/12/24 08:19:42;;;;;;;;;19.00;17.75;;;;;-147.17;100.00;50033.00;4973196;28;51100;-55
2021/12/24 08:22:10;;;;;;;;;18.75;17.00;;;;;-147.17;100.00;50056.63;4965587;28;51142;-55
2021/12/24 08:24:35;;;;;;;;;15.50;15.00;;;;;-147.17;100.00;50038.91;4982185;28;51895;-55
2021/12/24 08:27:01;;;;;;;;;20.25;17.50;;;;;-147.17;100.00;50027.09;4981890;28;51095;-55
2021/12/24 08:29:26;;;;;;;;;18.00;16.75;;;;;-147.17;100.00;50046.78;4982825;28;51049;-56
2021/12/24 08:31:52;;;;;;;;;17.25;16.50;;;;;-147.17;100.00;50031.03;4982400;28;51254;-56
2021/12/24 08:34:19;;;;;;;;;14.50;13.75;;;;;-147.17;100.00;50029.06;4981413;28;51790;-56
2021/12/24 08:36:46;;;;;;;;;16.00;12.25;;;;;-147.17;100.00;50038.91;4984972;28;50905;-57
2021/12/24 08:39:12;;;;;;;;;14.00;13.00;;;;;-147.17;100.00;50058.59;4973540;28;51130;-55
2021/12/24 08:41:37;;;;;;;;;16.50;15.00;;;;;-147.17;100.00;50052.69;4973593;28;51262;-55
2021/12/24 08:44:03;;;;;;;;;12.25;12.25;;;;;-147.17;100.00;50025.13;4976951;28;51799;-55
2021/12/24 08:46:29;;;;;;;;;18.00;16.50;;;;;-147.17;100.00;50009.38;4985546;28;51462;-55
2021/12/24 08:48:55;;;;;;;;;14.50;14.00;;;;;-147.17;100.00;49999.53;4980785;28;51192;-56
2021/12/24 08:51:20;;;;;;;;;14.50;13.50;;;;;-147.17;100.00;50025.13;4976115;28;51540;-55
2021/12/24 08:53:45;;;;;;;;;14.50;12.50;;;;;-147.17;100.00;50044.81;4971866;28;52006;-53
2021/12/24 08:56:11;;;;;;;;;16.00;14.00;;;;;-147.17;100.00;50040.88;4971922;28;51211;-54
2021/12/24 08:58:37;;;;;;;;;16.50;15.50;;;;;-147.17;100.00;50021.19;4959428;28;50996;-55
2021/12/24 09:01:04;;;;;;;;;19.25;14.75;;;;;-147.17;100.00;49993.63;4962852;28;51240;-54
2021/12/24 09:03:30;;;;;;;;;19.00;17.75;;;;;-147.17;100.00;50029.06;4960159;28;53168;-55
2021/12/24 09:05:55;;;;;;;;;16.75;16.25;;;;;-147.17;100.00;50011.34;4976024;28;52664;-55
2021/12/24 09:08:21;;;;;;;;;18.25;16.75;;;;;-147.17;100.00;50001.50;4976762;28;51021;-55
2021/12/24 09:10:46;;;;;;;;;14.33;14.00;;;;;-147.17;100.00;50050.72;4953302;28;51246;-54
2021/12/24 09:13:12;;;;;;;;;18.00;17.00;;;;;-147.17;100.00;50009.38;4953197;28;52206;-54
2021/12/24 09:15:37;;;;;;;;;18.00;18.00;;;;;-147.17;100.00;50042.84;4953028;28;50870;-55
2021/12/24 09:18:04;;;;;;;;;19.75;17.00;;;;;-147.17;100.00;50001.50;4960752;28;51262;-55
2021/12/24 09:20:36;;;;;;;;;15.25;15.25;;;;;-147.17;100.00;50019.22;4968493;28;51016;-56
2021/12/24 09:23:02;;;;;;;;;21.00;18.50;;;;;-147.17;100.00;50029.06;4969622;28;52609;-55
2021/12/24 09:25:29;;;;;;;;;12.00;11.00;;;;;-147.17;100.00;50023.16;4969120;28;51179;-54
2021/12/24 09:27:55;;;;;;;;;18.00;16.00;;;;;-147.17;100.00;49989.69;4967391;28;52901;-53
2021/12/24 09:30:21;;;;;;;;;15.75;14.25;;;;;-147.17;100.00;50001.50;4961765;28;50956;-54
2021/12/24 09:32:46;;;;;;;;;18.00;17.00;;;;;-147.17;100.00;49989.69;4970177;28;52632;-56
2021/12/24 09:35:12;;;;;;;;;14.50;13.75;;;;;-147.17;100.00;49999.53;4971619;28;51049;-56
2021/12/24 09:37:39;;;;;;;;;16.00;15.50;;;;;-147.17;100.00;50029.06;4972535;28;51013;-56
2021/12/24 09:40:06;;;;;;;;;20.25;18.50;;;;;-147.17;100.00;49966.06;4971131;28;51263;-56
2021/12/24 09:42:32;;;;;;;;;20.25;19.00;;;;;-147.17;100.00;50005.44;4970944;28;51904;-56
2021/12/24 09:44:58;;;;;;;;;19.00;18.25;;;;;-147.17;100.00;49997.56;4972543;28;50987;-54
2021/12/24 09:47:25;;;;;;;;;21.00;17.00;;;;;-147.17;100.00;50015.28;4963704;28;51093;-58
2021/12/24 09:49:51;;;;;;;;;20.75;18.00;;;;;-147.17;100.00;49970.00;4955337;28;51074;-55
2021/12/24 09:52:18;;;;;;;;;21.00;20.00;;;;;-147.17;100.00;49983.78;4972132;28;53472;-56
2021/12/24 09:54:45;;;;;;;;;18.00;16.50;;;;;-147.17;100.00;49989.69;4973658;28;51181;-55
2021/12/24 09:57:11;;;;;;;;;20.00;18.75;;;;;-147.17;100.00;50027.09;4973426;28;51152;-56
2021/12/24 09:59:36;;;;;;;;;14.00;13.25;;;;;-147.17;100.00;50009.38;4968684;28;51465;-56
2021/12/24 10:02:03;;;;;;;;;18.67;16.67;;;;;-147.17;100.00;50036.94;4983858;28;51100;-55
2021/12/24 10:04:31;;;;;;;;;19.50;18.50;;;;;-147.17;100.00;50033.00;4953085;28;51073;-55
2021/12/24 10:07:03;;;;;;;;;19.00;18.50;;;;;-147.17;100.00;50029.06;4955997;28;51447;-55
2021/12/24 10:09:29;;;;;;;;;16.25;14.00;;;;;-147.17;100.00;50034.97;4971967;28;51211;-54
2021/12/24 10:11:59;;;;;;;;;18.00;17.33;;;;;-147.17;100.00;50027.09;4973241;28;50945;-54
2021/12/24 10:14:39;;;;;;;;;19.00;17.50;;;;;-147.17;100.00;49999.53;4958783;28;51168;-56
2021/12/24 10:17:28;;;;;;;;;18.75;17.00;;;;;-147.17;100.00;50001.50;4971916;28;51076;-54
2021/12/24 10:19:57;;;;;;;;;18.00;17.00;;;;;-147.17;100.00;50017.25;4978584;28;51096;-58
2021/12/24 10:22:23;;;;;;;;;21.25;19.50;;;;;-147.17;100.00;50046.78;4955727;28;52263;-56
2021/12/24 10:25:01;;;;;;;;;21.50;20.75;;;;;-147.17;100.00;50029.06;4961593;28;51154;-55
2021/12/24 10:27:32;;;;;;;;;19.75;18.00;;;;;-147.17;100.00;50013.31;4975346;28;51262;-57
2021/12/24 10:29:59;;;;;;;;;16.00;16.00;;;;;-147.17;100.00;50040.88;4958551;28;51129;-54
2021/12/24 10:32:25;;;;;;;;;19.75;17.75;;;;;-147.17;100.00;50023.16;4954233;28;53091;-55
2021/12/24 10:34:50;;;;;;;;;21.00;20.00;;;;;-147.17;100.00;50015.28;4956054;28;50990;-55
2021/12/24 10:37:25;;;;;;;;;18.25;17.25;;;;;-147.17;100.00;50015.28;4961859;28;50999;-55
2021/12/24 10:39:57;;;;;;;;;19.00;17.75;;;;;-147.17;100.00;50076.31;4976503;28;51515;-55
2021/12/24 10:42:38;;;;;;;;;14.75;13.00;;;;;-147.17;100.00;50080.25;4976839;28;51361;-56
2021/12/24 10:45:14;;;;;;;;;17.00;15.25;;;;;-147.17;100.00;50058.59;4955314;28;51008;-56
2021/12/24 10:47:41;;;;;;;;;17.75;17.00;;;;;-147.17;100.00;50054.66;4955435;28;50859;-55
2021/12/24 10:50:37;;;;;;;;;14.00;14.00;;;;;-147.17;100.00;50048.75;4955640;28;51152;-55
2021/12/24 10:53:20;;;;;;;;;19.75;16.25;;;;;-147.17;100.00;50062.53;4962964;28;51699;-55
2021/12/24 10:55:54;;;;;;;;;20.50;20.25;;;;;-147.17;100.00;50033.00;4974983;28;50845;-57
2021/12/24 10:58:23;;;;;;;;;22.50;21.50;;;;;-147.17;100.00;50048.75;4962063;28;50971;-56
2021/12/24 11:00:59;;;;;;;;;13.50;13.50;;;;;-147.17;100.00;50050.72;4953979;28;51041;-54
2021/12/24 11:03:27;;;;;;;;;20.50;19.75;;;;;-147.17;100.00;50048.75;4956833;28;51212;-55
2021/12/24 11:06:06;;;;;;;;;19.25;18.50;;;;;-147.17;100.00;50052.69;4973983;28;51139;-56
2021/12/24 11:08:31;;;;;;;;;15.00;14.50;;;;;-147.17;100.00;50042.84;4985440;28;51076;-56
2021/12/24 11:10:59;;;;;;;;;15.00;14.00;;;;;-147.17;100.00;50082.22;4967012;28;51237;-56
2021/12/24 11:13:39;;;;;;;;;10.67;10.00;;;;;-147.17;100.00;50078.28;4961729;28;51304;-57
2021/12/24 11:16:07;;;;;;;;;22.25;19.75;;;;;-147.17;100.00;50080.25;4971528;28;50957;-54
2021/12/24 11:18:35;;;;;;;;;15.33;15.00;;;;;-147.17;100.00;50074.34;4974547;28;51130;-54
2021/12/24 11:21:02;;;;;;;;;16.25;15.50;;;;;-147.17;100.00;50088.13;4968515;28;51210;-56
2021/12/24 11:23:34;;;;;;;;;18.50;17.50;;;;;-147.17;100.00;50095.97;4971815;28;53287;-55
2021/12/24 11:26:03;;;;;;;;;21.50;20.25;;;;;-147.17;100.00;50095.97;4980298;28;51026;-55
2021/12/24 11:28:30;;;;;;;;;15.33;15.00;;;;;-147.17;100.00;50086.16;4973350;28;51174;-54
2021/12/24 11:31:03;;;;;;;;;18.50;17.75;;;;;-147.17;100.00;50097.94;4959968;28;51234;-56
2021/12/24 11:33:35;;;;;;;;;19.50;17.00;;;;;-147.17;100.00;50084.19;4973732;28;53055;-55
2021/12/24 11:36:04;;;;;;;;;20.00;17.67;;;;;-147.17;100.00;50111.72;4970472;28;51115;-55
2021/12/24 11:38:39;;;;;;;;;17.75;16.25;;;;;-147.17;100.00;50113.69;4973883;28;51041;-56
2021/12/24 11:41:07;;;;;;;;;16.75;15.25;;;;;-147.17;100.00;50131.41;4974344;28;50947;-54
2021/12/24 11:43:35;;;;;;;;;24.75;20.75;;;;;-147.17;100.00;50050.72;4954953;28;53117;-56
2021/12/24 11:46:04;;;;;;;;;17.25;17.25;;;;;-147.17;100.00;50101.88;4972946;28;51461;-55
2021/12/24 11:48:32;;;;;;;;;17.50;16.00;;;;;-147.17;100.00;50103.84;4966087;28;51203;-56
2021/12/24 11:51:00;;;;;;;;;18.75;17.00;;;;;-147.17;100.00;50064.50;4965536;28;51998;-56
2021/12/24 11:53:28;;;;;;;;;14.75;12.50;;;;;-147.17;100.00;50078.28;4968737;28;52563;-55
2021/12/24 11:55:53;;;;;;;;;13.67;13.67;;;;;-147.17;100.00;50074.34;4970443;28;51219;-57
2021/12/24 11:58:25;;;;;;;;;13.67;12.33;;;;;-147.17;100.00;50074.34;4972186;28;51552;-57
2021/12/24 12:00:54;;;;;;;;;17.33;15.67;;;;;-147.17;100.00;50080.25;4970362;28;51259;-56
2021/12/24 12:03:40;;;;;;;;;16.33;15.00;;;;;-147.17;100.00;50072.38;4964546;28;51350;-57
2021/12/24 12:06:29;;;;;;;;;16.33;15.00;;;;;-147.17;100.00;50060.56;4963149;28;51090;-56
2021/12/24 12:08:56;;;;;;;;;14.67;14.00;;;;;-147.17;100.00;50097.94;4980106;28;51606;-55
2021/12/24 12:11:24;;;;;;;;;18.00;17.67;;;;;-147.17;100.00;50074.34;4971451;28;51164;-56
2021/12/24 12:13:59;;;;;;;;;21.50;17.75;;;;;-147.17;100.00;50068.44;4971956;28;53066;-56
2021/12/24 12:16:47;;;;;;;;;16.00;15.67;;;;;-147.17;100.00;50088.13;4968249;28;51493;-56
2021/12/24 12:22:21;;;;;;;;;15.67;15.67;;;;;-147.17;100.00;50052.69;4971754;28;51135;-55
2021/12/24 12:24:57;;;;;;;;;20.00;20.00;;;;;-147.17;100.00;50052.69;4972007;28;50999;-56
2021/12/24 12:27:38;;;;;;;;;17.33;16.33;;;;;-147.17;100.00;50054.66;4971934;28;51301;-56
2021/12/24 12:30:42;;;;;;;;;21.67;18.33;;;;;-147.17;100.00;50017.25;4972169;28;51078;-56
2021/12/24 12:33:18;;;;;;;;;21.75;20.75;;;;;-147.17;100.00;50042.84;4965784;28;51292;-57
2021/12/24 12:35:57;;;;;;;;;15.25;14.75;;;;;-147.17;100.00;50052.69;4966783;28;51695;-56
2021/12/24 12:38:25;;;;;;;;;19.33;16.67;;;;;-147.17;100.00;50064.50;4967349;28;50964;-55